createdAt,value
2024-01-19T00:00:26.667Z,13.00
2024-01-19T00:01:26.699Z,11.50
2024-01-19T00:02:26.675Z,10.90
2024-01-19T00:03:26.645Z,12.30
2024-01-19T00:04:26.681Z,14.90
2024-01-19T00:05:26.738Z,13.60
2024-01-19T00:06:26.778Z,14.00
2024-01-19T00:07:26.652Z,12.30
2024-01-19T00:08:26.626Z,12.30
2024-01-19T00:09:26.602Z,12.80
2024-01-19T00:10:26.593Z,11.70
2024-01-19T00:11:26.719Z,11.00
2024-01-19T00:12:26.597Z,11.90
2024-01-19T00:13:26.556Z,11.00
2024-01-19T00:14:26.557Z,10.70
2024-01-19T00:15:33.123Z,11.00
2024-01-19T00:16:26.544Z,11.10
2024-01-19T00:17:26.538Z,10.90
2024-01-19T00:18:26.562Z,10.30
2024-01-19T00:19:26.654Z,11.60
2024-01-19T00:20:26.557Z,12.50
2024-01-19T00:21:26.481Z,9.80
2024-01-19T00:22:26.477Z,10.80
2024-01-19T00:23:26.509Z,10.10
2024-01-19T00:24:26.511Z,8.30
2024-01-19T00:25:26.470Z,9.40
2024-01-19T00:26:26.478Z,8.50
2024-01-19T00:27:26.452Z,10.30
2024-01-19T00:28:26.415Z,9.90
2024-01-19T00:29:26.464Z,8.70
2024-01-19T00:30:26.438Z,9.20
2024-01-19T00:31:26.402Z,9.80
2024-01-19T00:32:26.441Z,10.20
2024-01-19T00:33:26.439Z,9.60
2024-01-19T00:34:26.627Z,11.60
2024-01-19T00:35:26.381Z,10.40
2024-01-19T00:36:26.343Z,10.80
2024-01-19T00:37:26.349Z,9.50
2024-01-19T00:38:26.338Z,9.90
2024-01-19T00:39:26.895Z,9.60
2024-01-19T00:40:26.315Z,10.00
2024-01-19T00:41:26.345Z,9.50
2024-01-19T00:42:26.293Z,9.90
2024-01-19T00:43:26.918Z,10.00
2024-01-19T00:44:27.109Z,11.20
2024-01-19T00:45:26.291Z,10.50
2024-01-19T00:46:26.276Z,9.80
2024-01-19T00:47:26.326Z,11.10
2024-01-19T00:48:26.377Z,9.30
2024-01-19T00:49:26.324Z,11.90
2024-01-19T00:50:26.280Z,12.00
2024-01-19T00:51:26.221Z,10.30
2024-01-19T00:52:26.226Z,9.80
2024-01-19T00:53:26.261Z,9.50
2024-01-19T00:54:26.195Z,8.70
2024-01-19T00:55:26.199Z,8.50
2024-01-19T00:56:26.222Z,9.60
2024-01-19T00:57:26.884Z,11.00
2024-01-19T00:58:26.182Z,9.60
2024-01-19T00:59:26.164Z,9.90
2024-01-19T01:00:26.136Z,9.10
2024-01-19T01:01:26.153Z,9.60
2024-01-19T01:02:26.855Z,9.40
2024-01-19T01:03:26.109Z,9.10
2024-01-19T01:04:26.176Z,9.40
2024-01-19T01:05:26.165Z,9.50
2024-01-19T01:06:26.279Z,9.50
2024-01-19T01:07:26.106Z,9.30
2024-01-19T01:08:26.084Z,8.50
2024-01-19T01:09:26.060Z,9.80
2024-01-19T01:10:26.062Z,9.10
2024-01-19T01:11:26.079Z,9.00
2024-01-19T01:12:26.047Z,11.80
2024-01-19T01:13:26.023Z,11.70
2024-01-19T01:14:26.007Z,12.60
2024-01-19T01:15:26.005Z,11.80
2024-01-19T01:16:26.038Z,12.10
2024-01-19T01:17:26.026Z,11.80
2024-01-19T01:18:26.133Z,10.70
2024-01-19T01:19:25.978Z,10.30
2024-01-19T01:20:26.020Z,10.00
2024-01-19T01:21:26.473Z,8.90
2024-01-19T01:22:25.941Z,9.30
2024-01-19T01:23:25.970Z,10.50
2024-01-19T01:24:25.921Z,9.20
2024-01-19T01:25:25.928Z,10.10
2024-01-19T01:26:25.952Z,10.50
2024-01-19T01:27:25.896Z,11.20
2024-01-19T01:28:25.877Z,9.80
2024-01-19T01:29:25.905Z,9.40
2024-01-19T01:30:25.952Z,9.60
2024-01-19T01:31:25.863Z,8.60
2024-01-19T01:32:26.027Z,9.50
2024-01-19T01:33:25.969Z,9.00
2024-01-19T01:34:25.844Z,10.00
2024-01-19T01:35:25.955Z,9.80
2024-01-19T01:36:25.821Z,9.40
2024-01-19T01:37:25.804Z,10.00
2024-01-19T01:38:25.867Z,10.10
2024-01-19T01:39:25.851Z,10.60
2024-01-19T01:40:25.801Z,10.90
2024-01-19T01:41:25.805Z,10.50
2024-01-19T01:42:25.762Z,11.10
2024-01-19T01:43:25.767Z,14.60
2024-01-19T01:44:25.778Z,12.30
2024-01-19T01:45:25.740Z,12.70
2024-01-19T01:46:25.755Z,12.30
2024-01-19T01:47:25.831Z,10.60
2024-01-19T01:48:25.949Z,11.00
2024-01-19T01:49:25.861Z,10.50
2024-01-19T01:50:25.769Z,10.20
2024-01-19T01:51:25.685Z,11.40
2024-01-19T01:52:25.676Z,11.20
2024-01-19T01:53:25.866Z,11.20
2024-01-19T01:54:25.689Z,12.70
2024-01-19T01:55:25.680Z,13.30
2024-01-19T01:56:25.647Z,14.50
2024-01-19T01:57:25.641Z,13.70
2024-01-19T01:58:25.638Z,10.60
2024-01-19T01:59:25.659Z,14.80
2024-01-19T02:00:25.623Z,12.60
2024-01-19T02:01:25.627Z,12.40
2024-01-19T02:02:25.580Z,12.00
2024-01-19T02:03:25.594Z,12.40
2024-01-19T02:04:25.568Z,12.70
2024-01-19T02:05:25.629Z,12.70
2024-01-19T02:06:25.650Z,13.40
2024-01-19T02:07:25.760Z,11.70
2024-01-19T02:08:25.669Z,11.50
2024-01-19T02:09:25.535Z,10.20
2024-01-19T02:10:25.550Z,9.90
2024-01-19T02:11:25.529Z,12.40
2024-01-19T02:12:25.509Z,13.90
2024-01-19T02:13:25.494Z,14.00
2024-01-19T02:14:25.493Z,12.50
2024-01-19T02:15:25.482Z,12.90
2024-01-19T02:16:25.473Z,12.00
2024-01-19T02:17:25.641Z,10.20
2024-01-19T02:18:25.652Z,10.00
2024-01-19T02:19:25.475Z,11.30
2024-01-19T02:20:25.446Z,11.60
2024-01-19T02:21:25.440Z,10.90
2024-01-19T02:22:25.431Z,9.20
2024-01-19T02:23:25.411Z,8.60
2024-01-19T02:24:25.391Z,9.30
2024-01-19T02:25:25.387Z,9.30
2024-01-19T02:26:25.395Z,9.40
2024-01-19T02:27:25.358Z,9.20
2024-01-19T02:28:25.363Z,10.40
2024-01-19T02:29:25.344Z,8.70
2024-01-19T02:30:25.339Z,8.70
2024-01-19T02:31:25.369Z,9.80
2024-01-19T02:32:25.361Z,9.40
2024-01-19T02:33:25.356Z,9.90
2024-01-19T02:34:25.346Z,10.20
2024-01-19T02:35:25.314Z,9.70
2024-01-19T02:36:25.310Z,11.00
2024-01-19T02:37:25.284Z,11.00
2024-01-19T02:38:25.273Z,10.80
2024-01-19T02:39:25.247Z,9.40
2024-01-19T02:40:25.272Z,10.10
2024-01-19T02:41:25.250Z,10.20
2024-01-19T02:42:25.226Z,9.90
2024-01-19T02:43:25.234Z,10.40
2024-01-19T02:44:25.221Z,9.80
2024-01-19T02:45:25.215Z,8.70
2024-01-19T02:46:25.199Z,9.60
2024-01-19T02:47:25.264Z,9.60
2024-01-19T02:48:25.234Z,8.60
2024-01-19T02:49:25.220Z,9.60
2024-01-19T02:50:25.210Z,8.90
2024-01-19T02:51:25.143Z,9.70
2024-01-19T02:52:25.139Z,10.20
2024-01-19T02:53:25.158Z,12.30
2024-01-19T02:54:25.125Z,11.60
2024-01-19T02:55:25.097Z,10.60
2024-01-19T02:56:25.141Z,11.50
2024-01-19T02:57:25.080Z,10.80
2024-01-19T02:58:25.085Z,10.60
2024-01-19T02:59:25.099Z,10.60
2024-01-19T03:00:25.078Z,11.00
2024-01-19T03:01:25.041Z,11.70
2024-01-19T03:02:25.070Z,10.20
2024-01-19T03:03:25.042Z,10.20
2024-01-19T03:04:25.335Z,9.80
2024-01-19T03:05:25.084Z,10.40
2024-01-19T03:06:25.053Z,11.60
2024-01-19T03:07:25.006Z,11.50
2024-01-19T03:08:25.583Z,12.60
2024-01-19T03:09:24.972Z,11.40
2024-01-19T03:10:24.964Z,12.60
2024-01-19T03:11:24.994Z,12.10
2024-01-19T03:12:25.634Z,11.90
2024-01-19T03:13:24.948Z,12.40
2024-01-19T03:14:24.950Z,12.30
2024-01-19T03:15:24.916Z,11.40
2024-01-19T03:16:24.910Z,12.20
2024-01-19T03:17:24.983Z,12.90
2024-01-19T03:18:24.943Z,11.50
2024-01-19T03:19:24.916Z,12.70
2024-01-19T03:20:24.896Z,13.70
2024-01-19T03:21:24.864Z,13.60
2024-01-19T03:22:24.893Z,13.70
2024-01-19T03:23:24.889Z,11.50
2024-01-19T03:24:24.852Z,12.60
2024-01-19T03:25:24.832Z,10.20
2024-01-19T03:26:24.860Z,10.10
2024-01-19T03:27:24.823Z,11.30
2024-01-19T03:28:24.847Z,11.80
2024-01-19T03:29:24.842Z,11.60
2024-01-19T03:30:24.788Z,12.60
2024-01-19T03:31:24.845Z,10.90
2024-01-19T03:32:24.788Z,13.30
2024-01-19T03:33:24.815Z,15.90
2024-01-19T03:34:24.779Z,15.70
2024-01-19T03:35:24.777Z,13.80
2024-01-19T03:36:24.748Z,13.20
2024-01-19T03:37:24.744Z,14.60
2024-01-19T03:38:24.778Z,15.60
2024-01-19T03:39:24.712Z,18.60
2024-01-19T03:40:24.720Z,15.70
2024-01-19T03:41:24.746Z,17.00
2024-01-19T03:42:24.726Z,15.40
2024-01-19T03:43:24.698Z,14.20
2024-01-19T03:44:24.675Z,16.50
2024-01-19T03:45:24.661Z,12.90
2024-01-19T03:46:24.656Z,11.40
2024-01-19T03:47:24.738Z,12.40
2024-01-19T03:48:24.683Z,12.80
2024-01-19T03:49:24.678Z,12.90
2024-01-19T03:50:24.640Z,12.60
2024-01-19T03:51:24.609Z,12.70
2024-01-19T03:52:24.633Z,11.50
2024-01-19T03:53:24.597Z,12.00
2024-01-19T03:54:24.582Z,10.30
2024-01-19T03:55:24.581Z,10.80
2024-01-19T03:56:24.576Z,11.90
2024-01-19T03:57:24.527Z,11.90
2024-01-19T03:58:24.536Z,10.50
2024-01-19T03:59:24.586Z,10.90
2024-01-19T04:00:24.507Z,11.00
2024-01-19T04:01:24.514Z,10.20
2024-01-19T04:02:24.506Z,9.40
2024-01-19T04:03:24.610Z,11.60
2024-01-19T04:04:24.624Z,11.60
2024-01-19T04:05:24.580Z,11.50
2024-01-19T04:06:24.527Z,11.30
2024-01-19T04:07:24.477Z,9.60
2024-01-19T04:08:24.492Z,10.40
2024-01-19T04:09:24.509Z,9.60
2024-01-19T04:10:24.439Z,11.20
2024-01-19T04:11:24.465Z,10.50
2024-01-19T04:12:24.397Z,8.90
2024-01-19T04:13:24.404Z,9.70
2024-01-19T04:14:24.413Z,8.90
2024-01-19T04:15:24.387Z,9.70
2024-01-19T04:16:24.400Z,9.80
2024-01-19T04:17:24.518Z,9.00
2024-01-19T04:18:24.474Z,10.00
2024-01-19T04:19:24.372Z,9.80
2024-01-19T04:20:24.376Z,11.30
2024-01-19T04:21:24.330Z,10.50
2024-01-19T04:22:24.359Z,8.60
2024-01-19T04:23:24.330Z,8.20
2024-01-19T04:24:24.292Z,10.60
2024-01-19T04:25:24.301Z,10.20
2024-01-19T04:26:24.332Z,9.60
2024-01-19T04:27:24.283Z,9.20
2024-01-19T04:28:24.256Z,9.80
2024-01-19T04:29:24.275Z,8.30
2024-01-19T04:30:24.237Z,9.10
2024-01-19T04:31:24.239Z,11.20
2024-01-19T04:32:24.358Z,9.40
2024-01-19T04:33:24.308Z,8.10
2024-01-19T04:34:24.283Z,9.80
2024-01-19T04:35:24.232Z,9.30
2024-01-19T04:36:24.214Z,10.70
2024-01-19T04:37:24.191Z,10.00
2024-01-19T04:38:24.175Z,9.90
2024-01-19T04:39:24.158Z,10.80
2024-01-19T04:40:24.181Z,11.10
2024-01-19T04:41:24.174Z,8.20
2024-01-19T04:42:24.132Z,9.00
2024-01-19T04:43:24.132Z,10.30
2024-01-19T04:44:24.135Z,9.70
2024-01-19T04:45:24.098Z,11.00
2024-01-19T04:46:24.129Z,11.20
2024-01-19T04:47:24.144Z,10.20
2024-01-19T04:48:24.224Z,10.50
2024-01-19T04:49:24.084Z,11.10
2024-01-19T04:50:24.140Z,11.30
2024-01-19T04:51:24.092Z,11.40
2024-01-19T04:52:24.043Z,10.90
2024-01-19T04:53:24.126Z,10.10
2024-01-19T04:54:24.023Z,9.60
2024-01-19T04:55:24.030Z,10.90
2024-01-19T04:56:24.051Z,10.70
2024-01-19T04:57:24.016Z,11.20
2024-01-19T04:58:23.990Z,11.50
2024-01-19T04:59:24.027Z,9.60
2024-01-19T05:00:24.003Z,11.70
2024-01-19T05:01:23.967Z,10.60
2024-01-19T05:02:23.970Z,10.20
2024-01-19T05:03:23.966Z,10.80
2024-01-19T05:04:24.017Z,11.00
2024-01-19T05:05:24.006Z,10.50
2024-01-19T05:06:24.023Z,10.20
2024-01-19T05:07:23.903Z,10.00
2024-01-19T05:08:23.933Z,9.00
2024-01-19T05:09:23.904Z,11.20
2024-01-19T05:10:23.874Z,10.40
2024-01-19T05:11:23.891Z,11.10
2024-01-19T05:12:23.863Z,9.70
2024-01-19T05:13:23.856Z,10.10
2024-01-19T05:14:23.918Z,9.80
2024-01-19T05:15:23.915Z,9.30
2024-01-19T05:16:23.861Z,9.60
2024-01-19T05:17:23.948Z,10.60
2024-01-19T05:18:23.924Z,8.50
2024-01-19T05:19:23.836Z,9.30
2024-01-19T05:20:23.846Z,9.40
2024-01-19T05:21:23.809Z,9.00
2024-01-19T05:22:23.780Z,10.00
2024-01-19T05:23:23.777Z,10.90
2024-01-19T05:24:23.754Z,10.80
2024-01-19T05:25:23.730Z,10.80
2024-01-19T05:26:23.778Z,9.90
2024-01-19T05:27:23.725Z,9.10
2024-01-19T05:28:23.735Z,9.80
2024-01-19T05:29:23.744Z,10.80
2024-01-19T05:30:23.692Z,10.70
2024-01-19T05:31:23.746Z,9.50
2024-01-19T05:32:23.741Z,9.00
2024-01-19T05:33:23.764Z,9.90
2024-01-19T05:34:23.826Z,10.40
2024-01-19T05:35:23.648Z,10.00
2024-01-19T05:36:23.643Z,8.50
2024-01-19T05:37:23.653Z,9.40
2024-01-19T05:38:23.663Z,8.40
2024-01-19T05:39:23.608Z,9.60
2024-01-19T05:40:23.606Z,11.60
2024-01-19T05:41:23.694Z,10.20
2024-01-19T05:42:23.597Z,11.00
2024-01-19T05:43:23.632Z,8.80
2024-01-19T05:44:23.677Z,10.10
2024-01-19T05:45:23.547Z,9.50
2024-01-19T05:46:23.580Z,10.40
2024-01-19T05:47:23.671Z,8.70
2024-01-19T05:48:23.737Z,9.90
2024-01-19T05:49:23.556Z,10.80
2024-01-19T05:50:23.529Z,9.10
2024-01-19T05:51:23.530Z,9.00
2024-01-19T05:52:23.502Z,8.60
2024-01-19T05:53:23.539Z,8.60
2024-01-19T05:54:23.471Z,9.80
2024-01-19T05:55:23.483Z,10.00
2024-01-19T05:56:23.507Z,9.80
2024-01-19T05:57:23.445Z,9.20
2024-01-19T05:58:23.443Z,9.90
2024-01-19T05:59:23.509Z,10.00
2024-01-19T06:00:23.503Z,9.60
2024-01-19T06:01:23.473Z,8.80
2024-01-19T06:02:23.433Z,9.40
2024-01-19T06:03:23.504Z,8.70
2024-01-19T06:04:23.419Z,10.20
2024-01-19T06:05:23.508Z,10.20
2024-01-19T06:06:23.560Z,9.80
2024-01-19T06:07:23.359Z,9.20
2024-01-19T06:08:23.361Z,9.00
2024-01-19T06:09:23.341Z,9.00
2024-01-19T06:10:23.394Z,8.80
2024-01-19T06:11:23.328Z,8.40
2024-01-19T06:12:23.354Z,9.10
2024-01-19T06:13:23.305Z,9.30
2024-01-19T06:14:23.319Z,8.50
2024-01-19T06:15:23.310Z,8.00
2024-01-19T06:16:23.275Z,9.20
2024-01-19T06:17:23.315Z,9.30
2024-01-19T06:18:23.392Z,9.60
2024-01-19T06:19:23.290Z,10.90
2024-01-19T06:20:23.264Z,9.80
2024-01-19T06:21:23.210Z,8.90
2024-01-19T06:22:23.220Z,9.20
2024-01-19T06:23:23.202Z,10.30
2024-01-19T06:24:23.197Z,9.30
2024-01-19T06:25:23.187Z,9.90
2024-01-19T06:26:23.253Z,9.40
2024-01-19T06:27:23.211Z,8.70
2024-01-19T06:28:23.157Z,8.50
2024-01-19T06:29:23.180Z,8.00
2024-01-19T06:30:23.124Z,9.10
2024-01-19T06:31:23.155Z,9.60
2024-01-19T06:32:23.126Z,9.20
2024-01-19T06:33:23.680Z,8.40
2024-01-19T06:34:23.103Z,10.30
2024-01-19T06:35:23.135Z,8.10
2024-01-19T06:36:23.665Z,8.60
2024-01-19T06:37:23.099Z,8.00
2024-01-19T06:38:23.126Z,7.80
2024-01-19T06:39:23.148Z,8.40
2024-01-19T06:40:23.036Z,8.60
2024-01-19T06:41:23.064Z,8.30
2024-01-19T06:42:23.191Z,7.30
2024-01-19T06:43:23.602Z,8.10
2024-01-19T06:44:22.990Z,8.00
2024-01-19T06:45:23.044Z,8.60
2024-01-19T06:46:22.911Z,9.10
2024-01-19T06:47:23.003Z,8.20
2024-01-19T06:48:23.097Z,9.80
2024-01-19T06:49:22.996Z,6.70
2024-01-19T06:50:22.926Z,9.60
2024-01-19T06:51:22.920Z,8.80
2024-01-19T06:52:22.873Z,8.40
2024-01-19T06:53:22.933Z,8.00
2024-01-19T06:54:22.847Z,7.60
2024-01-19T06:55:22.911Z,8.00
2024-01-19T06:56:22.880Z,8.90
2024-01-19T06:57:22.827Z,8.10
2024-01-19T06:58:22.841Z,8.50
2024-01-19T06:59:22.908Z,8.40
2024-01-19T07:00:22.975Z,8.90
2024-01-19T07:01:22.888Z,7.80
2024-01-19T07:02:22.798Z,9.50
2024-01-19T07:03:22.772Z,9.20
2024-01-19T07:04:22.845Z,8.00
2024-01-19T07:05:22.854Z,7.80
2024-01-19T07:06:23.057Z,8.00
2024-01-19T07:07:22.774Z,8.80
2024-01-19T07:08:22.882Z,8.40
2024-01-19T07:09:22.730Z,8.70
2024-01-19T07:10:22.881Z,7.40
2024-01-19T07:11:23.324Z,8.60
2024-01-19T07:12:22.670Z,7.90
2024-01-19T07:13:22.660Z,9.10
2024-01-19T07:14:22.662Z,9.50
2024-01-19T07:15:22.654Z,8.60
2024-01-19T07:16:22.635Z,8.00
2024-01-19T07:17:22.660Z,8.80
2024-01-19T07:18:22.635Z,10.20
2024-01-19T07:19:22.665Z,8.20
2024-01-19T07:20:22.695Z,9.10
2024-01-19T07:21:22.564Z,8.70
2024-01-19T07:22:22.562Z,8.80
2024-01-19T07:23:22.576Z,8.40
2024-01-19T07:24:22.930Z,8.70
2024-01-19T07:25:22.552Z,9.00
2024-01-19T07:26:22.542Z,9.60
2024-01-19T07:27:22.533Z,8.90
2024-01-19T07:28:22.547Z,9.50
2024-01-19T07:29:22.549Z,9.70
2024-01-19T07:30:22.533Z,7.80
2024-01-19T07:31:22.479Z,8.80
2024-01-19T07:32:22.503Z,9.50
2024-01-19T07:33:28.908Z,9.10
2024-01-19T07:34:22.546Z,8.30
2024-01-19T07:35:22.708Z,9.00
2024-01-19T07:36:22.439Z,9.60
2024-01-19T07:37:22.523Z,9.70
2024-01-19T07:38:22.469Z,8.70
2024-01-19T07:39:22.412Z,8.50
2024-01-19T07:40:22.464Z,8.40
2024-01-19T07:41:22.493Z,9.00
2024-01-19T07:42:22.363Z,8.50
2024-01-19T07:43:22.387Z,8.80
2024-01-19T07:44:22.374Z,8.90
2024-01-19T07:45:22.380Z,7.90
2024-01-19T07:46:22.635Z,9.20
2024-01-19T07:47:22.374Z,9.60
2024-01-19T07:48:22.421Z,11.00
2024-01-19T07:49:22.411Z,8.30
2024-01-19T07:50:22.335Z,8.40
2024-01-19T07:51:22.301Z,8.70
2024-01-19T07:52:22.286Z,9.00
2024-01-19T07:53:22.322Z,9.10
2024-01-19T07:54:22.269Z,8.60
2024-01-19T07:55:22.282Z,8.60
2024-01-19T07:56:22.272Z,9.00
2024-01-19T07:57:22.248Z,8.40
2024-01-19T07:58:22.207Z,8.10
2024-01-19T07:59:22.294Z,8.40
2024-01-19T08:00:22.243Z,8.90
2024-01-19T08:01:22.206Z,9.10
2024-01-19T08:02:22.334Z,8.10
2024-01-19T08:03:22.194Z,9.70
2024-01-19T08:04:22.148Z,8.90
2024-01-19T08:05:22.212Z,8.70
2024-01-19T08:06:22.236Z,7.90
2024-01-19T08:07:22.169Z,9.10
2024-01-19T08:08:22.186Z,8.60
2024-01-19T08:09:22.122Z,8.60
2024-01-19T08:10:22.097Z,8.40
2024-01-19T08:11:22.197Z,8.90
2024-01-19T08:12:22.091Z,8.60
2024-01-19T08:13:22.166Z,9.10
2024-01-19T08:14:22.094Z,8.80
2024-01-19T08:15:22.048Z,7.40
2024-01-19T08:16:22.066Z,7.40
2024-01-19T08:17:22.042Z,7.80
2024-01-19T08:18:22.186Z,8.60
2024-01-19T08:19:22.133Z,7.60
2024-01-19T08:20:22.041Z,7.80
2024-01-19T08:21:22.022Z,8.10
2024-01-19T08:22:21.966Z,8.80
2024-01-19T08:23:22.064Z,8.00
2024-01-19T08:24:21.949Z,7.40
2024-01-19T08:25:21.988Z,8.40
2024-01-19T08:26:21.945Z,8.10
2024-01-19T08:27:21.942Z,8.20
2024-01-19T08:28:21.911Z,8.30
2024-01-19T08:29:21.910Z,9.20
2024-01-19T08:30:21.973Z,8.20
2024-01-19T08:31:21.889Z,8.50
2024-01-19T08:32:21.888Z,8.60
2024-01-19T08:33:21.919Z,9.70
2024-01-19T08:34:21.946Z,8.20
2024-01-19T08:35:21.875Z,7.70
2024-01-19T08:36:21.832Z,7.00
2024-01-19T08:37:21.843Z,8.70
2024-01-19T08:38:21.836Z,7.30
2024-01-19T08:39:21.848Z,7.50
2024-01-19T08:40:21.800Z,8.60
2024-01-19T08:41:21.814Z,7.50
2024-01-19T08:42:21.778Z,8.80
2024-01-19T08:43:21.770Z,8.40
2024-01-19T08:44:21.785Z,7.90
2024-01-19T08:45:21.816Z,8.60
2024-01-19T08:46:21.742Z,8.70
2024-01-19T08:47:21.738Z,8.40
2024-01-19T08:48:21.860Z,7.10
2024-01-19T08:49:21.755Z,7.90
2024-01-19T08:50:21.710Z,8.30
2024-01-19T08:51:21.797Z,8.90
2024-01-19T08:52:21.669Z,7.60
2024-01-19T08:53:21.717Z,8.30
2024-01-19T08:54:21.653Z,8.20
2024-01-19T08:55:21.656Z,8.10
2024-01-19T08:56:21.634Z,8.20
2024-01-19T08:57:21.736Z,7.90
2024-01-19T08:58:21.646Z,8.80
2024-01-19T08:59:21.682Z,8.00
2024-01-19T09:00:21.596Z,7.70
2024-01-19T09:01:21.611Z,6.80
2024-01-19T09:02:23.748Z,8.50
2024-01-19T09:03:21.660Z,7.60
2024-01-19T09:04:21.704Z,7.80
2024-01-19T09:05:21.626Z,7.10
2024-01-19T09:06:21.748Z,7.50
2024-01-19T09:07:21.769Z,8.40
2024-01-19T09:08:21.545Z,8.30
2024-01-19T09:09:21.511Z,8.20
2024-01-19T09:10:21.524Z,6.80
2024-01-19T09:11:21.490Z,8.00
2024-01-19T09:12:21.487Z,7.80
2024-01-19T09:13:21.494Z,7.30
2024-01-19T09:14:21.450Z,7.10
2024-01-19T09:15:21.464Z,8.30
2024-01-19T09:16:21.457Z,7.60
2024-01-19T09:17:21.445Z,8.20
2024-01-19T09:18:21.453Z,8.10
2024-01-19T09:19:21.424Z,9.30
2024-01-19T09:20:21.400Z,7.40
2024-01-19T09:21:21.467Z,8.90
2024-01-19T09:22:21.369Z,8.60
2024-01-19T09:23:21.411Z,6.70
2024-01-19T09:24:21.365Z,6.50
2024-01-19T09:25:21.352Z,7.50
2024-01-19T09:26:21.365Z,7.40
2024-01-19T09:27:21.329Z,8.20
2024-01-19T09:28:21.328Z,7.00
2024-01-19T09:29:21.317Z,7.30
2024-01-19T09:30:21.377Z,7.40
2024-01-19T09:31:21.321Z,7.80
2024-01-19T09:32:21.351Z,7.20
2024-01-19T09:33:21.441Z,7.90
2024-01-19T09:34:21.342Z,7.50
2024-01-19T09:35:21.273Z,7.10
2024-01-19T09:36:21.329Z,8.20
2024-01-19T09:37:21.256Z,6.90
2024-01-19T09:38:21.256Z,7.00
2024-01-19T09:39:21.224Z,7.10
2024-01-19T09:40:21.257Z,6.80
2024-01-19T09:41:21.192Z,7.70
2024-01-19T09:42:21.186Z,8.80
2024-01-19T09:43:21.176Z,7.40
2024-01-19T09:44:21.318Z,8.50
2024-01-19T09:45:21.174Z,7.30
2024-01-19T09:46:21.157Z,8.20
2024-01-19T09:47:21.232Z,7.70
2024-01-19T09:48:21.218Z,7.70
2024-01-19T09:49:21.167Z,7.60
2024-01-19T09:50:21.113Z,7.90
2024-01-19T09:51:21.229Z,8.50
2024-01-19T09:52:22.712Z,7.50
2024-01-19T09:53:21.090Z,7.60
2024-01-19T09:54:21.153Z,7.70
2024-01-19T09:55:21.059Z,8.40
2024-01-19T09:56:21.052Z,7.70
2024-01-19T09:57:21.054Z,8.40
2024-01-19T09:58:21.118Z,8.80
2024-01-19T09:59:21.048Z,7.30
2024-01-19T10:00:21.047Z,7.00
2024-01-19T10:01:21.061Z,7.90
2024-01-19T10:02:21.016Z,7.00
2024-01-19T10:03:21.053Z,7.10
2024-01-19T10:04:20.983Z,7.30
2024-01-19T10:05:21.063Z,8.10
2024-01-19T10:06:21.049Z,7.30
2024-01-19T10:07:20.970Z,6.60
2024-01-19T10:08:20.962Z,7.40
2024-01-19T10:09:20.943Z,7.60
2024-01-19T10:10:20.913Z,7.30
2024-01-19T10:11:20.917Z,7.90
2024-01-19T10:12:20.938Z,7.70
2024-01-19T10:13:20.900Z,8.00
2024-01-19T10:14:20.869Z,6.40
2024-01-19T10:15:20.925Z,7.10
2024-01-19T10:16:20.858Z,8.10
2024-01-19T10:17:20.916Z,7.40
2024-01-19T10:18:20.931Z,7.60
2024-01-19T10:19:20.925Z,6.40
2024-01-19T10:20:20.860Z,8.20
2024-01-19T10:21:20.827Z,7.80
2024-01-19T10:22:20.813Z,8.10
2024-01-19T10:23:21.214Z,8.30
2024-01-19T10:24:20.925Z,8.30
2024-01-19T10:25:20.765Z,8.50
2024-01-19T10:26:21.522Z,8.90
2024-01-19T10:27:20.774Z,7.90
2024-01-19T10:28:20.733Z,7.70
2024-01-19T10:29:20.760Z,8.80
2024-01-19T10:30:20.747Z,7.80
2024-01-19T10:31:20.786Z,6.90
2024-01-19T10:32:20.717Z,8.60
2024-01-19T10:33:20.798Z,7.30
2024-01-19T10:34:20.987Z,6.80
2024-01-19T10:35:20.667Z,6.70
2024-01-19T10:36:20.719Z,8.40
2024-01-19T10:37:20.693Z,7.90
2024-01-19T10:38:20.784Z,8.30
2024-01-19T10:39:20.648Z,7.80
2024-01-19T10:40:20.695Z,7.20
2024-01-19T10:41:20.650Z,8.80
2024-01-19T10:42:20.605Z,7.50
2024-01-19T10:43:20.622Z,7.90
2024-01-19T10:44:20.587Z,6.70
2024-01-19T10:45:20.598Z,8.20
2024-01-19T10:46:20.577Z,8.60
2024-01-19T10:47:20.579Z,7.00
2024-01-19T10:48:20.600Z,7.90
2024-01-19T10:49:20.631Z,7.90
2024-01-19T10:50:21.009Z,7.90
2024-01-19T10:51:20.580Z,7.70
2024-01-19T10:52:20.519Z,7.80
2024-01-19T10:53:20.513Z,6.80
2024-01-19T10:54:20.504Z,7.30
2024-01-19T10:55:20.532Z,7.20
2024-01-19T10:56:20.475Z,6.40
2024-01-19T10:57:20.541Z,7.00
2024-01-19T10:58:20.448Z,7.30
2024-01-19T10:59:20.452Z,7.70
2024-01-19T11:00:20.431Z,7.20
2024-01-19T11:01:20.516Z,8.80
2024-01-19T11:02:20.488Z,7.40
2024-01-19T11:03:20.467Z,7.40
2024-01-19T11:04:20.399Z,6.80
2024-01-19T11:05:20.382Z,6.70
2024-01-19T11:06:20.427Z,7.80
2024-01-19T11:07:20.482Z,6.60
2024-01-19T11:08:20.377Z,6.70
2024-01-19T11:09:20.354Z,7.00
2024-01-19T11:10:20.327Z,7.60
2024-01-19T11:11:20.318Z,7.40
2024-01-19T11:12:20.319Z,7.80
2024-01-19T11:13:20.330Z,8.20
2024-01-19T11:14:20.311Z,8.70
2024-01-19T11:15:20.276Z,6.90
2024-01-19T11:16:20.273Z,7.10
2024-01-19T11:17:20.267Z,9.10
2024-01-19T11:18:20.342Z,8.20
2024-01-19T11:19:20.351Z,8.70
2024-01-19T11:20:20.228Z,7.10
2024-01-19T11:21:20.224Z,8.60
2024-01-19T11:22:20.220Z,9.10
2024-01-19T11:23:20.224Z,7.80
2024-01-19T11:24:20.216Z,7.20
2024-01-19T11:25:20.185Z,7.30
2024-01-19T11:26:20.193Z,8.10
2024-01-19T11:27:20.172Z,8.10
2024-01-19T11:28:20.157Z,8.00
2024-01-19T11:29:20.711Z,7.30
2024-01-19T11:30:20.131Z,7.30
2024-01-19T11:31:20.114Z,6.70
2024-01-19T11:32:20.131Z,6.40
2024-01-19T11:33:20.220Z,6.50
2024-01-19T11:34:23.042Z,7.10
2024-01-19T11:35:20.080Z,7.50
2024-01-19T11:36:20.170Z,7.10
2024-01-19T11:37:20.069Z,6.30
2024-01-19T11:38:20.065Z,6.30
2024-01-19T11:39:20.033Z,6.80
2024-01-19T11:40:20.028Z,6.80
2024-01-19T11:41:20.034Z,6.50
2024-01-19T11:42:20.006Z,7.30
2024-01-19T11:43:19.990Z,6.60
2024-01-19T11:44:19.998Z,6.40
2024-01-19T11:45:19.989Z,5.80
2024-01-19T11:46:19.984Z,7.70
2024-01-19T11:47:19.953Z,6.00
2024-01-19T11:48:19.985Z,6.60
2024-01-19T11:49:20.015Z,6.90
2024-01-19T11:50:19.971Z,6.80
2024-01-19T11:51:19.941Z,7.60
2024-01-19T11:52:19.901Z,5.90
2024-01-19T11:53:19.905Z,6.80
2024-01-19T11:54:19.885Z,7.40
2024-01-19T11:55:19.875Z,8.00
2024-01-19T11:56:19.938Z,6.50
2024-01-19T11:57:20.067Z,6.90
2024-01-19T11:58:19.854Z,6.90
2024-01-19T11:59:19.846Z,6.90
2024-01-19T12:00:19.900Z,7.80
2024-01-19T12:01:19.833Z,7.80
2024-01-19T12:02:19.819Z,6.80
2024-01-19T12:03:19.838Z,6.80
2024-01-19T12:04:20.237Z,6.60
2024-01-19T12:05:19.802Z,8.30
2024-01-19T12:06:19.819Z,6.70
2024-01-19T12:07:19.911Z,7.10
2024-01-19T12:08:19.784Z,7.70
2024-01-19T12:09:21.170Z,6.90
2024-01-19T12:10:19.728Z,7.00
2024-01-19T12:11:19.722Z,7.10
2024-01-19T12:12:19.703Z,7.40
2024-01-19T12:13:19.705Z,7.90
2024-01-19T12:14:19.738Z,6.40
2024-01-19T12:15:19.718Z,7.10
2024-01-19T12:16:19.662Z,7.00
2024-01-19T12:17:19.669Z,6.80
2024-01-19T12:18:19.691Z,6.80
2024-01-19T12:19:19.816Z,6.90
2024-01-19T12:20:20.073Z,7.10
2024-01-19T12:21:19.620Z,8.10
2024-01-19T12:22:19.603Z,6.80
2024-01-19T12:23:19.653Z,8.00
2024-01-19T12:24:19.617Z,6.90
2024-01-19T12:25:19.599Z,6.20
2024-01-19T12:26:19.570Z,6.90
2024-01-19T12:27:19.552Z,7.70
2024-01-19T12:28:19.569Z,7.10
2024-01-19T12:29:19.530Z,7.20
2024-01-19T12:30:19.576Z,7.50
2024-01-19T12:31:19.556Z,7.80
2024-01-19T12:32:19.602Z,6.90
2024-01-19T12:33:19.752Z,7.10
2024-01-19T12:34:19.510Z,7.40
2024-01-19T12:35:19.624Z,6.60
2024-01-19T12:36:19.488Z,7.00
2024-01-19T12:37:19.464Z,6.80
2024-01-19T12:38:19.479Z,7.30
2024-01-19T12:39:19.494Z,6.90
2024-01-19T12:40:19.453Z,6.80
2024-01-19T12:41:19.463Z,7.60
2024-01-19T12:42:19.437Z,7.10
2024-01-19T12:43:19.391Z,6.70
2024-01-19T12:44:19.393Z,6.50
2024-01-19T12:45:19.510Z,7.70
2024-01-19T12:46:20.348Z,6.70
2024-01-19T12:47:19.370Z,7.00
2024-01-19T12:48:25.688Z,7.10
2024-01-19T12:49:19.373Z,7.60
2024-01-19T12:50:23.566Z,6.90
2024-01-19T12:51:19.477Z,6.60
2024-01-19T12:52:19.310Z,6.80
2024-01-19T12:53:19.409Z,8.30
2024-01-19T12:54:19.288Z,7.60
2024-01-19T12:55:19.267Z,6.80
2024-01-19T12:56:19.324Z,6.50
2024-01-19T12:57:19.254Z,6.60
2024-01-19T12:58:19.250Z,6.50
2024-01-19T12:59:19.243Z,7.70
2024-01-19T13:00:19.244Z,7.60
2024-01-19T13:01:19.366Z,6.50
2024-01-19T13:02:19.208Z,6.00
2024-01-19T13:03:19.218Z,7.20
2024-01-19T13:04:19.188Z,6.60
2024-01-19T13:05:19.256Z,6.30
2024-01-19T13:06:19.182Z,6.30
2024-01-19T13:07:19.195Z,6.70
2024-01-19T13:08:19.146Z,6.60
2024-01-19T13:09:19.155Z,6.10
2024-01-19T13:10:19.149Z,6.70